sensor_id;sensor_type;location;lat;lon;timestamp;temperature;humidity
69533;DHT22;56729;52.036;5.332;2024-01-16T00:00:50;0.90;99.90
69533;DHT22;56729;52.036;5.332;2024-01-16T00:01:52;0.80;99.90
69533;DHT22;56729;52.036;5.332;2024-01-16T00:02:54;0.80;99.90
69533;DHT22;56729;52.036;5.332;2024-01-16T00:03:56;0.80;99.90
69533;DHT22;56729;52.036;5.332;2024-01-16T00:04:58;0.80;99.90
69533;DHT22;56729;52.036;5.332;2024-01-16T00:06:00;0.80;99.90
69533;DHT22;56729;52.036;5.332;2024-01-16T00:07:04;0.80;99.90
69533;DHT22;56729;52.036;5.332;2024-01-16T00:08:06;0.80;99.90
69533;DHT22;56729;52.036;5.332;2024-01-16T00:09:08;0.80;99.90
69533;DHT22;56729;52.036;5.332;2024-01-16T00:10:11;0.80;99.90
69533;DHT22;56729;52.036;5.332;2024-01-16T00:11:13;0.80;99.90
69533;DHT22;56729;52.036;5.332;2024-01-16T00:12:15;0.80;99.90
69533;DHT22;56729;52.036;5.332;2024-01-16T00:13:17;0.80;99.90
69533;DHT22;56729;52.036;5.332;2024-01-16T00:14:20;0.90;99.90
69533;DHT22;56729;52.036;5.332;2024-01-16T00:15:22;0.90;99.90
69533;DHT22;56729;52.036;5.332;2024-01-16T00:16:24;0.90;99.90
69533;DHT22;56729;52.036;5.332;2024-01-16T00:17:26;0.90;99.90
69533;DHT22;56729;52.036;5.332;2024-01-16T00:18:28;0.90;99.90
69533;DHT22;56729;52.036;5.332;2024-01-16T00:19:30;0.90;99.90
69533;DHT22;56729;52.036;5.332;2024-01-16T00:20:33;1.00;99.90
69533;DHT22;56729;52.036;5.332;2024-01-16T00:21:43;1.00;99.90
69533;DHT22;56729;52.036;5.332;2024-01-16T00:22:47;1.00;99.90
69533;DHT22;56729;52.036;5.332;2024-01-16T00:23:49;1.00;99.90
69533;DHT22;56729;52.036;5.332;2024-01-16T00:24:51;1.00;99.90
69533;DHT22;56729;52.036;5.332;2024-01-16T00:25:53;1.00;99.90
69533;DHT22;56729;52.036;5.332;2024-01-16T00:26:55;1.00;99.90
69533;DHT22;56729;52.036;5.332;2024-01-16T00:27:57;1.00;99.90
69533;DHT22;56729;52.036;5.332;2024-01-16T00:28:59;1.00;99.90
69533;DHT22;56729;52.036;5.332;2024-01-16T00:30:02;1.00;99.90
69533;DHT22;56729;52.036;5.332;2024-01-16T00:31:07;1.00;99.90
69533;DHT22;56729;52.036;5.332;2024-01-16T00:32:10;1.00;99.90
69533;DHT22;56729;52.036;5.332;2024-01-16T00:33:12;1.00;99.90
69533;DHT22;56729;52.036;5.332;2024-01-16T00:34:14;1.00;99.90
69533;DHT22;56729;52.036;5.332;2024-01-16T00:35:17;1.00;99.90
69533;DHT22;56729;52.036;5.332;2024-01-16T00:36:19;1.00;99.90
69533;DHT22;56729;52.036;5.332;2024-01-16T00:37:21;1.00;99.90
69533;DHT22;56729;52.036;5.332;2024-01-16T00:38:24;1.00;99.90
69533;DHT22;56729;52.036;5.332;2024-01-16T00:39:26;1.00;99.90
69533;DHT22;56729;52.036;5.332;2024-01-16T00:40:28;1.00;99.90
69533;DHT22;56729;52.036;5.332;2024-01-16T00:41:30;1.00;99.90
69533;DHT22;56729;52.036;5.332;2024-01-16T00:42:32;1.00;99.90
69533;DHT22;56729;52.036;5.332;2024-01-16T00:43:34;1.00;99.90
69533;DHT22;56729;52.036;5.332;2024-01-16T00:44:37;1.00;99.90
69533;DHT22;56729;52.036;5.332;2024-01-16T00:45:39;1.00;99.90
69533;DHT22;56729;52.036;5.332;2024-01-16T00:46:42;1.00;99.90
69533;DHT22;56729;52.036;5.332;2024-01-16T00:47:44;1.00;99.90
69533;DHT22;56729;52.036;5.332;2024-01-16T00:48:46;1.00;99.90
69533;DHT22;56729;52.036;5.332;2024-01-16T00:49:50;0.90;99.90
69533;DHT22;56729;52.036;5.332;2024-01-16T00:50:52;0.90;99.90
69533;DHT22;56729;52.036;5.332;2024-01-16T00:51:54;0.90;99.90
69533;DHT22;56729;52.036;5.332;2024-01-16T00:52:56;0.90;99.90
69533;DHT22;56729;52.036;5.332;2024-01-16T00:53:58;0.90;99.90
69533;DHT22;56729;52.036;5.332;2024-01-16T00:55:00;1.00;99.90
69533;DHT22;56729;52.036;5.332;2024-01-16T00:56:02;1.00;99.90
69533;DHT22;56729;52.036;5.332;2024-01-16T00:57:04;1.00;99.90
69533;DHT22;56729;52.036;5.332;2024-01-16T00:58:06;1.00;99.90
69533;DHT22;56729;52.036;5.332;2024-01-16T00:59:08;1.00;99.90
69533;DHT22;56729;52.036;5.332;2024-01-16T01:00:10;1.00;99.90
69533;DHT22;56729;52.036;5.332;2024-01-16T01:01:13;1.00;99.90
69533;DHT22;56729;52.036;5.332;2024-01-16T01:02:15;1.00;99.90
69533;DHT22;56729;52.036;5.332;2024-01-16T01:03:17;1.00;99.90
69533;DHT22;56729;52.036;5.332;2024-01-16T01:04:19;1.00;99.90
69533;DHT22;56729;52.036;5.332;2024-01-16T01:05:21;1.00;99.90
69533;DHT22;56729;52.036;5.332;2024-01-16T01:06:27;1.00;99.90
69533;DHT22;56729;52.036;5.332;2024-01-16T01:07:30;1.00;99.90
69533;DHT22;56729;52.036;5.332;2024-01-16T01:08:32;1.00;99.90
69533;DHT22;56729;52.036;5.332;2024-01-16T01:09:34;1.00;99.90
69533;DHT22;56729;52.036;5.332;2024-01-16T01:10:36;1.00;99.90
69533;DHT22;56729;52.036;5.332;2024-01-16T01:11:39;1.00;99.90
69533;DHT22;56729;52.036;5.332;2024-01-16T01:12:41;1.00;99.90
69533;DHT22;56729;52.036;5.332;2024-01-16T01:13:43;1.00;99.90
69533;DHT22;56729;52.036;5.332;2024-01-16T01:14:45;1.00;99.90
69533;DHT22;56729;52.036;5.332;2024-01-16T01:15:47;1.00;99.90
69533;DHT22;56729;52.036;5.332;2024-01-16T01:16:50;1.10;99.90
69533;DHT22;56729;52.036;5.332;2024-01-16T01:17:52;1.00;99.90
69533;DHT22;56729;52.036;5.332;2024-01-16T01:18:54;1.00;99.90
69533;DHT22;56729;52.036;5.332;2024-01-16T01:19:57;1.00;99.90
69533;DHT22;56729;52.036;5.332;2024-01-16T01:20:59;1.00;99.90
69533;DHT22;56729;52.036;5.332;2024-01-16T01:22:01;1.10;99.90
69533;DHT22;56729;52.036;5.332;2024-01-16T01:23:04;1.10;99.90
69533;DHT22;56729;52.036;5.332;2024-01-16T01:24:06;1.10;99.90
69533;DHT22;56729;52.036;5.332;2024-01-16T01:25:08;1.10;99.90
69533;DHT22;56729;52.036;5.332;2024-01-16T01:26:10;1.10;99.90
69533;DHT22;56729;52.036;5.332;2024-01-16T01:27:15;1.10;99.90
69533;DHT22;56729;52.036;5.332;2024-01-16T01:28:18;1.10;99.90
69533;DHT22;56729;52.036;5.332;2024-01-16T01:29:20;1.10;99.90
69533;DHT22;56729;52.036;5.332;2024-01-16T01:30:22;1.10;99.90
69533;DHT22;56729;52.036;5.332;2024-01-16T01:31:24;1.10;99.90
69533;DHT22;56729;52.036;5.332;2024-01-16T01:32:26;1.10;99.90
69533;DHT22;56729;52.036;5.332;2024-01-16T01:33:29;1.10;99.90
69533;DHT22;56729;52.036;5.332;2024-01-16T01:34:31;1.10;99.90
69533;DHT22;56729;52.036;5.332;2024-01-16T01:35:33;1.10;99.90
69533;DHT22;56729;52.036;5.332;2024-01-16T01:36:35;1.10;99.90
69533;DHT22;56729;52.036;5.332;2024-01-16T01:37:37;1.10;99.90
69533;DHT22;56729;52.036;5.332;2024-01-16T01:38:40;1.10;99.90
69533;DHT22;56729;52.036;5.332;2024-01-16T01:39:42;1.10;99.90
69533;DHT22;56729;52.036;5.332;2024-01-16T01:40:44;1.10;99.90
69533;DHT22;56729;52.036;5.332;2024-01-16T01:41:46;1.10;99.90
69533;DHT22;56729;52.036;5.332;2024-01-16T01:42:48;1.10;99.90
69533;DHT22;56729;52.036;5.332;2024-01-16T01:43:50;1.10;99.90
69533;DHT22;56729;52.036;5.332;2024-01-16T01:44:52;1.10;99.90
69533;DHT22;56729;52.036;5.332;2024-01-16T01:46:10;1.10;99.90
69533;DHT22;56729;52.036;5.332;2024-01-16T01:47:14;1.10;99.90
69533;DHT22;56729;52.036;5.332;2024-01-16T01:48:16;1.10;99.90
69533;DHT22;56729;52.036;5.332;2024-01-16T01:49:19;1.10;99.90
69533;DHT22;56729;52.036;5.332;2024-01-16T01:50:21;1.10;99.90
69533;DHT22;56729;52.036;5.332;2024-01-16T01:51:24;1.10;99.90
69533;DHT22;56729;52.036;5.332;2024-01-16T01:52:26;1.10;99.90
69533;DHT22;56729;52.036;5.332;2024-01-16T01:53:30;1.10;99.90
69533;DHT22;56729;52.036;5.332;2024-01-16T01:54:35;1.10;99.90
69533;DHT22;56729;52.036;5.332;2024-01-16T01:55:37;1.10;99.90
69533;DHT22;56729;52.036;5.332;2024-01-16T01:56:40;1.20;99.90
69533;DHT22;56729;52.036;5.332;2024-01-16T01:57:44;1.20;99.90
69533;DHT22;56729;52.036;5.332;2024-01-16T01:58:48;1.20;99.90
69533;DHT22;56729;52.036;5.332;2024-01-16T01:59:51;1.20;99.90
69533;DHT22;56729;52.036;5.332;2024-01-16T02:00:53;1.20;99.90
69533;DHT22;56729;52.036;5.332;2024-01-16T02:01:55;1.20;99.90
69533;DHT22;56729;52.036;5.332;2024-01-16T02:02:58;1.20;99.90
69533;DHT22;56729;52.036;5.332;2024-01-16T02:04:00;1.20;99.90
69533;DHT22;56729;52.036;5.332;2024-01-16T02:05:03;1.20;99.90
69533;DHT22;56729;52.036;5.332;2024-01-16T02:06:06;1.20;99.90
69533;DHT22;56729;52.036;5.332;2024-01-16T02:07:10;1.20;99.90
69533;DHT22;56729;52.036;5.332;2024-01-16T02:08:12;1.30;99.90
69533;DHT22;56729;52.036;5.332;2024-01-16T02:09:14;1.30;99.90
69533;DHT22;56729;52.036;5.332;2024-01-16T02:10:16;1.30;99.90
69533;DHT22;56729;52.036;5.332;2024-01-16T02:11:18;1.30;99.90
69533;DHT22;56729;52.036;5.332;2024-01-16T02:12:20;1.30;99.90
69533;DHT22;56729;52.036;5.332;2024-01-16T02:13:26;1.30;99.90
69533;DHT22;56729;52.036;5.332;2024-01-16T02:14:28;1.30;99.90
69533;DHT22;56729;52.036;5.332;2024-01-16T02:15:30;1.30;99.90
69533;DHT22;56729;52.036;5.332;2024-01-16T02:16:39;1.30;99.90
69533;DHT22;56729;52.036;5.332;2024-01-16T02:17:42;1.30;99.90
69533;DHT22;56729;52.036;5.332;2024-01-16T02:18:44;1.30;99.90
69533;DHT22;56729;52.036;5.332;2024-01-16T02:19:47;1.30;99.90
69533;DHT22;56729;52.036;5.332;2024-01-16T02:20:49;1.40;99.90
69533;DHT22;56729;52.036;5.332;2024-01-16T02:21:54;1.40;99.90
69533;DHT22;56729;52.036;5.332;2024-01-16T02:23:03;1.40;99.90
69533;DHT22;56729;52.036;5.332;2024-01-16T02:24:08;1.40;99.90
69533;DHT22;56729;52.036;5.332;2024-01-16T02:25:12;1.40;99.90
69533;DHT22;56729;52.036;5.332;2024-01-16T02:26:18;1.40;99.90
69533;DHT22;56729;52.036;5.332;2024-01-16T02:27:20;1.40;99.90
69533;DHT22;56729;52.036;5.332;2024-01-16T02:28:22;1.40;99.90
69533;DHT22;56729;52.036;5.332;2024-01-16T02:29:24;1.40;99.90
69533;DHT22;56729;52.036;5.332;2024-01-16T02:30:26;1.40;99.90
69533;DHT22;56729;52.036;5.332;2024-01-16T02:31:28;1.40;99.90
69533;DHT22;56729;52.036;5.332;2024-01-16T02:32:30;1.50;99.90
69533;DHT22;56729;52.036;5.332;2024-01-16T02:33:32;1.50;99.90
69533;DHT22;56729;52.036;5.332;2024-01-16T02:34:35;1.50;99.90
69533;DHT22;56729;52.036;5.332;2024-01-16T02:35:36;1.50;99.90
69533;DHT22;56729;52.036;5.332;2024-01-16T02:36:39;1.50;99.90
69533;DHT22;56729;52.036;5.332;2024-01-16T02:37:41;1.50;99.90
69533;DHT22;56729;52.036;5.332;2024-01-16T02:38:43;1.50;99.90
69533;DHT22;56729;52.036;5.332;2024-01-16T02:39:47;1.50;99.90
69533;DHT22;56729;52.036;5.332;2024-01-16T02:40:49;1.50;99.90
69533;DHT22;56729;52.036;5.332;2024-01-16T02:41:51;1.50;99.90
69533;DHT22;56729;52.036;5.332;2024-01-16T02:42:53;1.50;99.90
69533;DHT22;56729;52.036;5.332;2024-01-16T02:43:55;1.50;99.90
69533;DHT22;56729;52.036;5.332;2024-01-16T02:44:57;1.50;99.90
69533;DHT22;56729;52.036;5.332;2024-01-16T02:45:59;1.50;99.90
69533;DHT22;56729;52.036;5.332;2024-01-16T02:47:01;1.60;99.90
69533;DHT22;56729;52.036;5.332;2024-01-16T02:48:03;1.60;99.90
69533;DHT22;56729;52.036;5.332;2024-01-16T02:49:06;1.60;99.90
69533;DHT22;56729;52.036;5.332;2024-01-16T02:50:09;1.60;99.90
69533;DHT22;56729;52.036;5.332;2024-01-16T02:51:15;1.60;99.90
69533;DHT22;56729;52.036;5.332;2024-01-16T02:52:17;1.60;99.90
69533;DHT22;56729;52.036;5.332;2024-01-16T02:53:20;1.70;99.90
69533;DHT22;56729;52.036;5.332;2024-01-16T02:54:22;1.70;99.90
69533;DHT22;56729;52.036;5.332;2024-01-16T02:55:24;1.70;99.90
69533;DHT22;56729;52.036;5.332;2024-01-16T02:56:26;1.70;99.90
69533;DHT22;56729;52.036;5.332;2024-01-16T02:57:28;1.70;99.90
69533;DHT22;56729;52.036;5.332;2024-01-16T02:58:30;1.70;99.90
69533;DHT22;56729;52.036;5.332;2024-01-16T02:59:32;1.70;99.90
69533;DHT22;56729;52.036;5.332;2024-01-16T03:00:36;1.70;99.90
69533;DHT22;56729;52.036;5.332;2024-01-16T03:01:39;1.70;99.90
69533;DHT22;56729;52.036;5.332;2024-01-16T03:02:41;1.70;99.90
69533;DHT22;56729;52.036;5.332;2024-01-16T03:03:43;1.60;99.90
69533;DHT22;56729;52.036;5.332;2024-01-16T03:04:46;1.60;99.90
69533;DHT22;56729;52.036;5.332;2024-01-16T03:05:48;1.60;99.90
69533;DHT22;56729;52.036;5.332;2024-01-16T03:06:51;1.60;99.90
69533;DHT22;56729;52.036;5.332;2024-01-16T03:07:53;1.60;99.90
69533;DHT22;56729;52.036;5.332;2024-01-16T03:08:55;1.60;99.90
69533;DHT22;56729;52.036;5.332;2024-01-16T03:09:57;1.60;99.90
69533;DHT22;56729;52.036;5.332;2024-01-16T03:10:59;1.70;99.90
69533;DHT22;56729;52.036;5.332;2024-01-16T03:12:01;1.70;99.90
69533;DHT22;56729;52.036;5.332;2024-01-16T03:13:03;1.70;99.90
69533;DHT22;56729;52.036;5.332;2024-01-16T03:14:06;1.70;99.90
69533;DHT22;56729;52.036;5.332;2024-01-16T03:15:08;1.70;99.90
69533;DHT22;56729;52.036;5.332;2024-01-16T03:16:11;1.70;99.90
69533;DHT22;56729;52.036;5.332;2024-01-16T03:17:13;1.70;99.90
69533;DHT22;56729;52.036;5.332;2024-01-16T03:18:15;1.70;99.90
69533;DHT22;56729;52.036;5.332;2024-01-16T03:19:17;1.70;99.90
69533;DHT22;56729;52.036;5.332;2024-01-16T03:20:19;1.70;99.90
69533;DHT22;56729;52.036;5.332;2024-01-16T03:21:21;1.60;99.90
69533;DHT22;56729;52.036;5.332;2024-01-16T03:22:23;1.70;99.90
69533;DHT22;56729;52.036;5.332;2024-01-16T03:23:25;1.70;99.90
69533;DHT22;56729;52.036;5.332;2024-01-16T03:24:27;1.70;99.90
69533;DHT22;56729;52.036;5.332;2024-01-16T03:25:29;1.70;99.90
69533;DHT22;56729;52.036;5.332;2024-01-16T03:26:32;1.70;99.90
69533;DHT22;56729;52.036;5.332;2024-01-16T03:27:34;1.70;99.90
69533;DHT22;56729;52.036;5.332;2024-01-16T03:28:36;1.60;99.90
69533;DHT22;56729;52.036;5.332;2024-01-16T03:29:38;1.70;99.90
69533;DHT22;56729;52.036;5.332;2024-01-16T03:30:40;1.70;99.90
69533;DHT22;56729;52.036;5.332;2024-01-16T03:31:42;1.70;99.90
69533;DHT22;56729;52.036;5.332;2024-01-16T03:32:44;1.70;99.90
69533;DHT22;56729;52.036;5.332;2024-01-16T03:33:46;1.70;99.90
69533;DHT22;56729;52.036;5.332;2024-01-16T03:34:48;1.70;99.90
69533;DHT22;56729;52.036;5.332;2024-01-16T03:35:53;1.70;99.90
69533;DHT22;56729;52.036;5.332;2024-01-16T03:36:55;1.70;99.90
69533;DHT22;56729;52.036;5.332;2024-01-16T03:37:57;1.70;99.90
69533;DHT22;56729;52.036;5.332;2024-01-16T03:38:59;1.70;99.90
69533;DHT22;56729;52.036;5.332;2024-01-16T03:40:01;1.70;99.90
69533;DHT22;56729;52.036;5.332;2024-01-16T03:41:03;1.70;99.90
69533;DHT22;56729;52.036;5.332;2024-01-16T03:42:06;1.70;99.90
69533;DHT22;56729;52.036;5.332;2024-01-16T03:43:07;1.60;99.90
69533;DHT22;56729;52.036;5.332;2024-01-16T03:44:09;1.60;99.90
69533;DHT22;56729;52.036;5.332;2024-01-16T03:45:11;1.60;99.90
69533;DHT22;56729;52.036;5.332;2024-01-16T03:46:18;1.60;99.90
69533;DHT22;56729;52.036;5.332;2024-01-16T03:47:20;1.60;99.90
69533;DHT22;56729;52.036;5.332;2024-01-16T03:48:22;1.60;99.90
69533;DHT22;56729;52.036;5.332;2024-01-16T03:49:24;1.60;99.90
69533;DHT22;56729;52.036;5.332;2024-01-16T03:50:27;1.60;99.90
69533;DHT22;56729;52.036;5.332;2024-01-16T03:51:29;1.60;99.90
69533;DHT22;56729;52.036;5.332;2024-01-16T03:52:31;1.60;99.90
69533;DHT22;56729;52.036;5.332;2024-01-16T03:53:33;1.60;99.90
69533;DHT22;56729;52.036;5.332;2024-01-16T03:54:35;1.60;99.90
69533;DHT22;56729;52.036;5.332;2024-01-16T03:55:37;1.60;99.90
69533;DHT22;56729;52.036;5.332;2024-01-16T03:56:39;1.60;99.90
69533;DHT22;56729;52.036;5.332;2024-01-16T03:57:41;1.60;99.90
69533;DHT22;56729;52.036;5.332;2024-01-16T03:58:44;1.60;99.90
69533;DHT22;56729;52.036;5.332;2024-01-16T03:59:46;1.60;99.90
69533;DHT22;56729;52.036;5.332;2024-01-16T04:00:48;1.60;99.90
69533;DHT22;56729;52.036;5.332;2024-01-16T04:01:52;1.60;99.90
69533;DHT22;56729;52.036;5.332;2024-01-16T04:02:54;1.60;99.90
69533;DHT22;56729;52.036;5.332;2024-01-16T04:03:56;1.60;99.90
69533;DHT22;56729;52.036;5.332;2024-01-16T04:04:58;1.60;99.90
69533;DHT22;56729;52.036;5.332;2024-01-16T04:06:01;1.60;99.90
69533;DHT22;56729;52.036;5.332;2024-01-16T04:07:04;1.60;99.90
69533;DHT22;56729;52.036;5.332;2024-01-16T04:08:05;1.60;99.90
69533;DHT22;56729;52.036;5.332;2024-01-16T04:09:08;1.50;99.90
69533;DHT22;56729;52.036;5.332;2024-01-16T04:10:12;1.50;99.90
69533;DHT22;56729;52.036;5.332;2024-01-16T04:11:14;1.50;99.90
69533;DHT22;56729;52.036;5.332;2024-01-16T04:12:16;1.60;99.90
69533;DHT22;56729;52.036;5.332;2024-01-16T04:13:18;1.60;99.90
69533;DHT22;56729;52.036;5.332;2024-01-16T04:14:21;1.50;99.90
69533;DHT22;56729;52.036;5.332;2024-01-16T04:15:23;1.50;99.90
69533;DHT22;56729;52.036;5.332;2024-01-16T04:16:26;1.50;99.90
69533;DHT22;56729;52.036;5.332;2024-01-16T04:17:28;1.50;99.90
69533;DHT22;56729;52.036;5.332;2024-01-16T04:18:36;1.50;99.90
69533;DHT22;56729;52.036;5.332;2024-01-16T04:19:39;1.40;99.90
69533;DHT22;56729;52.036;5.332;2024-01-16T04:20:41;1.40;99.90
69533;DHT22;56729;52.036;5.332;2024-01-16T04:21:43;1.40;99.90
69533;DHT22;56729;52.036;5.332;2024-01-16T04:22:46;1.40;99.90
69533;DHT22;56729;52.036;5.332;2024-01-16T04:23:48;1.40;99.90
69533;DHT22;56729;52.036;5.332;2024-01-16T04:24:50;1.40;99.90
69533;DHT22;56729;52.036;5.332;2024-01-16T04:25:52;1.40;99.90
69533;DHT22;56729;52.036;5.332;2024-01-16T04:26:54;1.40;99.90
69533;DHT22;56729;52.036;5.332;2024-01-16T04:27:56;1.50;99.90
69533;DHT22;56729;52.036;5.332;2024-01-16T04:29:01;1.50;99.90
69533;DHT22;56729;52.036;5.332;2024-01-16T04:30:03;1.50;99.90
69533;DHT22;56729;52.036;5.332;2024-01-16T04:31:06;1.50;99.90
69533;DHT22;56729;52.036;5.332;2024-01-16T04:32:08;1.50;99.90
69533;DHT22;56729;52.036;5.332;2024-01-16T04:33:10;1.50;99.90
69533;DHT22;56729;52.036;5.332;2024-01-16T04:34:12;1.50;99.90
69533;DHT22;56729;52.036;5.332;2024-01-16T04:35:14;1.50;99.90
69533;DHT22;56729;52.036;5.332;2024-01-16T04:36:17;1.50;99.90
69533;DHT22;56729;52.036;5.332;2024-01-16T04:37:18;1.50;99.90
69533;DHT22;56729;52.036;5.332;2024-01-16T04:38:20;1.50;99.90
69533;DHT22;56729;52.036;5.332;2024-01-16T04:39:22;1.50;99.90
69533;DHT22;56729;52.036;5.332;2024-01-16T04:40:24;1.50;99.90
69533;DHT22;56729;52.036;5.332;2024-01-16T04:41:26;1.50;99.90
69533;DHT22;56729;52.036;5.332;2024-01-16T04:42:28;1.50;99.90
69533;DHT22;56729;52.036;5.332;2024-01-16T04:43:31;1.50;99.90
69533;DHT22;56729;52.036;5.332;2024-01-16T04:44:33;1.50;99.90
69533;DHT22;56729;52.036;5.332;2024-01-16T04:45:34;1.50;99.90
69533;DHT22;56729;52.036;5.332;2024-01-16T04:46:37;1.50;99.90
69533;DHT22;56729;52.036;5.332;2024-01-16T04:47:39;1.50;99.90
69533;DHT22;56729;52.036;5.332;2024-01-16T04:48:42;1.50;99.90
69533;DHT22;56729;52.036;5.332;2024-01-16T04:49:44;1.50;99.90
69533;DHT22;56729;52.036;5.332;2024-01-16T04:50:46;1.50;99.90
69533;DHT22;56729;52.036;5.332;2024-01-16T04:51:51;1.50;99.90
69533;DHT22;56729;52.036;5.332;2024-01-16T04:52:53;1.50;99.90
69533;DHT22;56729;52.036;5.332;2024-01-16T04:53:56;1.50;99.90
69533;DHT22;56729;52.036;5.332;2024-01-16T04:54:58;1.50;99.90
69533;DHT22;56729;52.036;5.332;2024-01-16T04:56:00;1.50;99.90
69533;DHT22;56729;52.036;5.332;2024-01-16T04:57:02;1.50;99.90
69533;DHT22;56729;52.036;5.332;2024-01-16T04:58:04;1.50;99.90
69533;DHT22;56729;52.036;5.332;2024-01-16T04:59:07;1.50;99.90
69533;DHT22;56729;52.036;5.332;2024-01-16T05:00:10;1.50;99.90
69533;DHT22;56729;52.036;5.332;2024-01-16T05:01:12;1.60;99.90
69533;DHT22;56729;52.036;5.332;2024-01-16T05:02:15;1.60;99.90
69533;DHT22;56729;52.036;5.332;2024-01-16T05:03:19;1.60;99.90
69533;DHT22;56729;52.036;5.332;2024-01-16T05:04:21;1.60;99.90
69533;DHT22;56729;52.036;5.332;2024-01-16T05:05:23;1.70;99.90
69533;DHT22;56729;52.036;5.332;2024-01-16T05:06:30;1.70;99.90
69533;DHT22;56729;52.036;5.332;2024-01-16T05:07:32;1.70;99.90
69533;DHT22;56729;52.036;5.332;2024-01-16T05:08:34;1.70;99.90
69533;DHT22;56729;52.036;5.332;2024-01-16T05:09:36;1.70;99.90
69533;DHT22;56729;52.036;5.332;2024-01-16T05:10:38;1.70;99.90
69533;DHT22;56729;52.036;5.332;2024-01-16T05:11:42;1.70;99.90
69533;DHT22;56729;52.036;5.332;2024-01-16T05:12:45;1.80;99.90
69533;DHT22;56729;52.036;5.332;2024-01-16T05:13:47;1.70;99.90
69533;DHT22;56729;52.036;5.332;2024-01-16T05:14:49;1.70;99.90
69533;DHT22;56729;52.036;5.332;2024-01-16T05:15:51;1.70;99.90
69533;DHT22;56729;52.036;5.332;2024-01-16T05:16:53;1.70;99.90
69533;DHT22;56729;52.036;5.332;2024-01-16T05:17:55;1.70;99.90
69533;DHT22;56729;52.036;5.332;2024-01-16T05:18:57;1.70;99.90
69533;DHT22;56729;52.036;5.332;2024-01-16T05:19:59;1.70;99.90
69533;DHT22;56729;52.036;5.332;2024-01-16T05:21:01;1.70;99.90
69533;DHT22;56729;52.036;5.332;2024-01-16T05:22:05;1.60;99.90
69533;DHT22;56729;52.036;5.332;2024-01-16T05:23:07;1.70;99.90
69533;DHT22;56729;52.036;5.332;2024-01-16T05:24:09;1.70;99.90
69533;DHT22;56729;52.036;5.332;2024-01-16T05:25:11;1.60;99.90
69533;DHT22;56729;52.036;5.332;2024-01-16T05:26:13;1.70;99.90
69533;DHT22;56729;52.036;5.332;2024-01-16T05:27:15;1.60;99.90
69533;DHT22;56729;52.036;5.332;2024-01-16T05:28:17;1.70;99.90
69533;DHT22;56729;52.036;5.332;2024-01-16T05:29:20;1.70;99.90
69533;DHT22;56729;52.036;5.332;2024-01-16T05:30:24;1.60;99.90
69533;DHT22;56729;52.036;5.332;2024-01-16T05:31:26;1.70;99.90
69533;DHT22;56729;52.036;5.332;2024-01-16T05:32:28;1.70;99.90
69533;DHT22;56729;52.036;5.332;2024-01-16T05:33:31;1.70;99.90
69533;DHT22;56729;52.036;5.332;2024-01-16T05:34:34;1.70;99.90
69533;DHT22;56729;52.036;5.332;2024-01-16T05:35:36;1.70;99.90
69533;DHT22;56729;52.036;5.332;2024-01-16T05:36:38;1.70;99.90
69533;DHT22;56729;52.036;5.332;2024-01-16T05:37:40;1.70;99.90
69533;DHT22;56729;52.036;5.332;2024-01-16T05:38:42;1.70;99.90
69533;DHT22;56729;52.036;5.332;2024-01-16T05:39:45;1.70;99.90
69533;DHT22;56729;52.036;5.332;2024-01-16T05:40:47;1.70;99.90
69533;DHT22;56729;52.036;5.332;2024-01-16T05:41:52;1.70;99.90
69533;DHT22;56729;52.036;5.332;2024-01-16T05:42:54;1.70;99.90
69533;DHT22;56729;52.036;5.332;2024-01-16T05:43:58;1.70;99.90
69533;DHT22;56729;52.036;5.332;2024-01-16T05:45:00;1.70;99.90
69533;DHT22;56729;52.036;5.332;2024-01-16T05:46:03;1.70;99.90
69533;DHT22;56729;52.036;5.332;2024-01-16T05:47:05;1.70;99.90
69533;DHT22;56729;52.036;5.332;2024-01-16T05:48:07;1.70;99.90
69533;DHT22;56729;52.036;5.332;2024-01-16T05:49:10;1.70;99.90
69533;DHT22;56729;52.036;5.332;2024-01-16T05:50:13;1.70;99.90
69533;DHT22;56729;52.036;5.332;2024-01-16T05:51:15;1.70;99.90
69533;DHT22;56729;52.036;5.332;2024-01-16T05:52:17;1.70;99.90
69533;DHT22;56729;52.036;5.332;2024-01-16T05:53:19;1.70;99.90
69533;DHT22;56729;52.036;5.332;2024-01-16T05:54:21;1.70;99.90
69533;DHT22;56729;52.036;5.332;2024-01-16T05:55:24;1.70;99.90
69533;DHT22;56729;52.036;5.332;2024-01-16T05:56:26;1.70;99.90
69533;DHT22;56729;52.036;5.332;2024-01-16T05:57:30;1.80;99.90
69533;DHT22;56729;52.036;5.332;2024-01-16T05:58:35;1.80;99.90
69533;DHT22;56729;52.036;5.332;2024-01-16T05:59:41;1.70;99.90
69533;DHT22;56729;52.036;5.332;2024-01-16T06:00:43;1.70;99.90
69533;DHT22;56729;52.036;5.332;2024-01-16T06:01:45;1.80;99.90
69533;DHT22;56729;52.036;5.332;2024-01-16T06:02:47;1.80;99.90
69533;DHT22;56729;52.036;5.332;2024-01-16T06:03:49;1.80;99.90
69533;DHT22;56729;52.036;5.332;2024-01-16T06:04:51;1.80;99.90
69533;DHT22;56729;52.036;5.332;2024-01-16T06:05:53;1.80;99.90
69533;DHT22;56729;52.036;5.332;2024-01-16T06:06:56;1.80;99.90
69533;DHT22;56729;52.036;5.332;2024-01-16T06:07:58;1.80;99.90
69533;DHT22;56729;52.036;5.332;2024-01-16T06:09:00;1.70;99.90
69533;DHT22;56729;52.036;5.332;2024-01-16T06:10:06;1.70;99.90
69533;DHT22;56729;52.036;5.332;2024-01-16T06:11:12;1.70;99.90
69533;DHT22;56729;52.036;5.332;2024-01-16T06:12:16;1.70;99.90
69533;DHT22;56729;52.036;5.332;2024-01-16T06:13:21;1.80;99.90
69533;DHT22;56729;52.036;5.332;2024-01-16T06:14:24;1.80;99.90
69533;DHT22;56729;52.036;5.332;2024-01-16T06:15:26;1.80;99.90
69533;DHT22;56729;52.036;5.332;2024-01-16T06:16:28;1.80;99.90
69533;DHT22;56729;52.036;5.332;2024-01-16T06:17:31;1.80;99.90
69533;DHT22;56729;52.036;5.332;2024-01-16T06:18:34;1.80;99.90
69533;DHT22;56729;52.036;5.332;2024-01-16T06:19:37;1.80;99.90
69533;DHT22;56729;52.036;5.332;2024-01-16T06:20:39;1.90;99.90
69533;DHT22;56729;52.036;5.332;2024-01-16T06:21:41;1.80;99.90
69533;DHT22;56729;52.036;5.332;2024-01-16T06:22:43;1.80;99.90
69533;DHT22;56729;52.036;5.332;2024-01-16T06:23:45;1.90;99.90
69533;DHT22;56729;52.036;5.332;2024-01-16T06:24:47;1.90;99.90
69533;DHT22;56729;52.036;5.332;2024-01-16T06:25:50;1.90;99.90
69533;DHT22;56729;52.036;5.332;2024-01-16T06:26:52;1.90;99.90
69533;DHT22;56729;52.036;5.332;2024-01-16T06:27:54;1.90;99.90
69533;DHT22;56729;52.036;5.332;2024-01-16T06:28:57;1.90;99.90
69533;DHT22;56729;52.036;5.332;2024-01-16T06:29:59;1.90;99.90
69533;DHT22;56729;52.036;5.332;2024-01-16T06:31:01;1.90;99.90
69533;DHT22;56729;52.036;5.332;2024-01-16T06:32:03;1.90;99.90
69533;DHT22;56729;52.036;5.332;2024-01-16T06:33:06;1.90;99.90
69533;DHT22;56729;52.036;5.332;2024-01-16T06:34:08;1.90;99.90
69533;DHT22;56729;52.036;5.332;2024-01-16T06:35:12;1.90;99.90
69533;DHT22;56729;52.036;5.332;2024-01-16T06:36:15;1.90;99.90
69533;DHT22;56729;52.036;5.332;2024-01-16T06:37:17;1.90;99.90
69533;DHT22;56729;52.036;5.332;2024-01-16T06:38:20;1.90;99.90
69533;DHT22;56729;52.036;5.332;2024-01-16T06:39:22;1.90;99.90
69533;DHT22;56729;52.036;5.332;2024-01-16T06:40:24;1.90;99.90
69533;DHT22;56729;52.036;5.332;2024-01-16T06:41:26;1.90;99.90